createdAt,value
2024-02-02T00:02:17.715Z,7.53
2024-02-02T00:04:44.567Z,6.82
2024-02-02T00:07:11.535Z,6.97
2024-02-02T00:09:38.585Z,7.18
2024-02-02T00:12:07.758Z,6.82
2024-02-02T00:14:34.903Z,7.25
2024-02-02T00:17:01.850Z,7.68
2024-02-02T00:19:29.022Z,7.15
2024-02-02T00:21:55.990Z,7.50
2024-02-02T00:24:22.932Z,7.10
2024-02-02T00:26:49.892Z,7.28
2024-02-02T00:29:16.844Z,7.88
2024-02-02T00:31:43.745Z,7.10
2024-02-02T00:34:10.852Z,6.75
2024-02-02T00:36:37.754Z,6.75
2024-02-02T00:39:04.510Z,7.80
2024-02-02T00:41:31.224Z,6.82
2024-02-02T00:43:57.887Z,8.32
2024-02-02T00:46:25.131Z,8.48
2024-02-02T00:48:52.040Z,8.05
2024-02-02T00:51:19.065Z,8.00
2024-02-02T00:53:45.852Z,7.25
2024-02-02T00:56:12.517Z,7.47
2024-02-02T00:58:39.191Z,7.40
2024-02-02T01:01:06.875Z,6.38
2024-02-02T01:03:35.177Z,7.35
2024-02-02T01:06:02.109Z,7.13
2024-02-02T01:08:30.426Z,7.43
2024-02-02T01:10:59.248Z,8.20
2024-02-02T01:13:27.675Z,8.80
2024-02-02T01:15:54.520Z,8.00
2024-02-02T01:18:21.405Z,7.47
2024-02-02T01:20:48.206Z,7.15
2024-02-02T01:23:14.891Z,7.28
2024-02-02T01:25:41.591Z,8.70
2024-02-02T01:28:08.322Z,7.75
2024-02-02T01:30:35.053Z,7.68
2024-02-02T01:33:01.864Z,8.32
2024-02-02T01:35:28.609Z,8.20
2024-02-02T01:37:55.437Z,7.95
2024-02-02T01:40:22.389Z,8.25
2024-02-02T01:42:49.111Z,8.98
2024-02-02T01:45:16.464Z,8.13
2024-02-02T01:47:43.327Z,7.50
2024-02-02T01:50:10.322Z,8.05
2024-02-02T01:52:37.099Z,9.07
2024-02-02T01:55:05.182Z,8.18
2024-02-02T01:57:32.070Z,8.55
2024-02-02T01:59:59.051Z,7.95
2024-02-02T02:02:25.732Z,8.98
2024-02-02T02:04:52.580Z,8.25
2024-02-02T02:07:19.287Z,8.30
2024-02-02T02:09:46.569Z,8.57
2024-02-02T02:12:13.456Z,8.05
2024-02-02T02:14:40.224Z,8.30
2024-02-02T02:17:07.461Z,7.50
2024-02-02T02:19:36.044Z,8.05
2024-02-02T02:22:03.494Z,7.60
2024-02-02T02:24:30.196Z,7.57
2024-02-02T02:26:57.273Z,7.38
2024-02-02T02:29:24.059Z,6.88
2024-02-02T02:31:57.060Z,7.15
2024-02-02T02:34:29.301Z,6.82
2024-02-02T02:36:56.241Z,7.82
2024-02-02T02:39:23.009Z,7.03
2024-02-02T02:41:49.750Z,6.60
2024-02-02T02:44:16.448Z,6.70
2024-02-02T02:46:43.806Z,7.00
2024-02-02T02:49:11.077Z,7.85
2024-02-02T02:51:37.872Z,7.70
2024-02-02T02:54:04.623Z,7.65
2024-02-02T02:56:31.662Z,7.20
2024-02-02T02:58:58.351Z,6.32
2024-02-02T03:01:25.061Z,6.35
2024-02-02T03:03:51.860Z,7.22
2024-02-02T03:06:18.650Z,6.05
2024-02-02T03:08:45.372Z,6.40
2024-02-02T03:11:12.486Z,6.72
2024-02-02T03:13:39.252Z,7.45
2024-02-02T03:16:06.723Z,6.45
2024-02-02T03:18:33.583Z,6.38
2024-02-02T03:21:00.477Z,6.35
2024-02-02T03:23:27.372Z,6.70
2024-02-02T03:25:54.014Z,5.80
2024-02-02T03:28:20.671Z,5.75
2024-02-02T03:30:47.431Z,6.10
2024-02-02T03:33:14.169Z,6.85
2024-02-02T03:35:40.884Z,6.45
2024-02-02T03:38:07.598Z,5.85
2024-02-02T03:40:34.389Z,5.85
2024-02-02T03:43:01.112Z,6.05
2024-02-02T03:45:27.825Z,5.75
2024-02-02T03:47:54.917Z,6.15
2024-02-02T03:50:21.643Z,6.00
2024-02-02T03:52:51.447Z,6.05
2024-02-02T03:55:18.340Z,4.93
2024-02-02T03:57:44.988Z,5.90
2024-02-02T04:00:12.352Z,6.45
2024-02-02T04:02:39.318Z,6.50
2024-02-02T04:05:06.640Z,6.20
2024-02-02T04:07:33.337Z,6.18
2024-02-02T04:09:59.991Z,6.28
2024-02-02T04:12:26.784Z,6.07
2024-02-02T04:14:53.664Z,5.70
2024-02-02T04:17:20.431Z,5.20
2024-02-02T04:19:47.214Z,6.13
2024-02-02T04:22:17.738Z,6.53
2024-02-02T04:24:44.853Z,7.47
2024-02-02T04:27:11.821Z,6.57
2024-02-02T04:29:38.522Z,5.70
2024-02-02T04:32:05.348Z,5.50
2024-02-02T04:34:32.377Z,6.03
2024-02-02T04:36:59.200Z,6.40
2024-02-02T04:39:25.978Z,5.97
2024-02-02T04:41:52.694Z,6.18
2024-02-02T04:44:19.410Z,6.90
2024-02-02T04:46:46.090Z,6.70
2024-02-02T04:49:13.387Z,6.97
2024-02-02T04:51:40.281Z,6.88
2024-02-02T04:54:07.067Z,6.50
2024-02-02T04:56:33.762Z,7.20
2024-02-02T04:59:00.438Z,6.72
2024-02-02T05:01:27.104Z,7.35
2024-02-02T05:03:54.641Z,7.32
2024-02-02T05:06:22.967Z,6.88
2024-02-02T05:08:50.178Z,6.78
2024-02-02T05:11:16.892Z,6.93
2024-02-02T05:13:43.574Z,7.72
2024-02-02T05:16:12.061Z,7.53
2024-02-02T05:18:40.321Z,7.45
2024-02-02T05:21:07.374Z,7.72
2024-02-02T05:23:34.235Z,8.13
2024-02-02T05:26:00.934Z,8.40
2024-02-02T05:28:27.599Z,8.43
2024-02-02T05:30:54.283Z,8.25
2024-02-02T05:33:21.196Z,8.05
2024-02-02T05:35:48.310Z,8.43
2024-02-02T05:38:15.023Z,7.20
2024-02-02T05:40:41.787Z,7.57
2024-02-02T05:43:11.714Z,7.72
2024-02-02T05:45:38.432Z,7.55
2024-02-02T05:48:05.386Z,7.25
2024-02-02T05:50:32.373Z,7.40
2024-02-02T05:52:59.047Z,6.40
2024-02-02T05:55:25.710Z,6.75
2024-02-02T05:57:52.366Z,6.05
2024-02-02T06:00:19.725Z,7.07
2024-02-02T06:02:47.840Z,6.85
2024-02-02T06:05:14.937Z,7.43
2024-02-02T06:07:41.728Z,6.20
2024-02-02T06:10:08.708Z,6.22
2024-02-02T06:12:37.875Z,6.15
2024-02-02T06:15:07.095Z,6.45
2024-02-02T06:17:34.091Z,6.72
2024-02-02T06:20:00.808Z,6.28
2024-02-02T06:22:27.523Z,6.55
2024-02-02T06:24:54.190Z,7.15
2024-02-02T06:27:24.168Z,6.95
2024-02-02T06:29:51.541Z,6.90
2024-02-02T06:32:22.008Z,6.93
2024-02-02T06:34:51.877Z,6.38
2024-02-02T06:37:19.632Z,5.82
2024-02-02T06:39:49.264Z,6.40
2024-02-02T06:42:16.096Z,6.10
2024-02-02T06:44:42.765Z,5.80
2024-02-02T06:47:09.453Z,5.22
2024-02-02T06:49:36.133Z,6.20
2024-02-02T06:52:03.431Z,6.32
2024-02-02T06:54:30.810Z,6.45
2024-02-02T06:56:57.565Z,6.35
2024-02-02T06:59:24.367Z,5.97
2024-02-02T07:01:52.876Z,6.05
2024-02-02T07:04:19.841Z,5.28
2024-02-02T07:06:48.105Z,5.85
2024-02-02T07:09:21.076Z,4.68
2024-02-02T07:11:57.989Z,5.32
2024-02-02T07:14:48.472Z,5.05
2024-02-02T07:17:41.807Z,4.55
2024-02-02T07:20:19.603Z,5.18
2024-02-02T07:22:46.327Z,4.28
2024-02-02T07:25:17.932Z,4.13
2024-02-02T07:27:47.631Z,4.75
2024-02-02T07:30:33.940Z,5.00
2024-02-02T07:33:01.820Z,4.28
2024-02-02T07:35:30.970Z,4.10
2024-02-02T07:38:00.171Z,4.53
2024-02-02T07:40:54.908Z,4.07
2024-02-02T07:43:21.777Z,4.03
2024-02-02T07:45:48.403Z,4.72
2024-02-02T07:48:15.354Z,4.20
2024-02-02T07:50:42.035Z,4.03
2024-02-02T07:53:08.856Z,3.88
2024-02-02T07:55:35.492Z,4.28
2024-02-02T07:58:04.211Z,4.43
2024-02-02T08:00:31.875Z,4.40
2024-02-02T08:02:58.577Z,3.92
2024-02-02T08:05:25.374Z,3.90
2024-02-02T08:07:52.069Z,4.07
2024-02-02T08:10:18.762Z,4.10
2024-02-02T08:12:45.467Z,4.07
2024-02-02T08:15:12.157Z,4.50
2024-02-02T08:17:38.925Z,4.38
2024-02-02T08:20:07.246Z,4.63
2024-02-02T08:22:34.010Z,4.03
2024-02-02T08:25:00.713Z,4.53
2024-02-02T08:27:27.553Z,4.40
2024-02-02T08:29:54.291Z,4.88
2024-02-02T08:32:21.031Z,3.63
2024-02-02T08:34:47.691Z,4.72
2024-02-02T08:37:15.618Z,4.28
2024-02-02T08:39:42.301Z,3.97
2024-02-02T08:42:24.580Z,4.25
2024-02-02T08:44:52.226Z,4.10
2024-02-02T08:47:22.654Z,4.22
2024-02-02T08:49:57.675Z,3.70
2024-02-02T08:52:35.669Z,4.05
2024-02-02T08:55:07.212Z,4.63
2024-02-02T08:57:42.200Z,4.03
2024-02-02T09:00:17.367Z,4.43
2024-02-02T09:02:53.919Z,4.88
2024-02-02T09:05:35.700Z,4.03
2024-02-02T09:08:27.899Z,3.45
2024-02-02T09:11:00.604Z,4.72
2024-02-02T09:13:36.669Z,3.70
2024-02-02T09:16:04.677Z,3.53
2024-02-02T09:18:46.613Z,3.70
2024-02-02T09:21:17.265Z,4.20
2024-02-02T09:23:50.933Z,3.63
2024-02-02T09:26:32.834Z,3.83
2024-02-02T09:29:01.667Z,3.95
2024-02-02T09:31:33.238Z,3.35
2024-02-02T09:34:08.007Z,3.95
2024-02-02T09:36:35.226Z,4.20
2024-02-02T09:39:36.939Z,3.88
2024-02-02T09:42:22.206Z,4.68
2024-02-02T09:44:57.916Z,4.47
2024-02-02T09:47:33.463Z,4.07
2024-02-02T09:50:32.086Z,4.75
2024-02-02T09:53:07.487Z,4.43
2024-02-02T09:55:42.803Z,4.78
2024-02-02T09:58:31.920Z,3.92
2024-02-02T10:01:06.438Z,5.07
2024-02-02T10:03:57.857Z,4.97
2024-02-02T10:06:42.445Z,4.68
2024-02-02T10:09:30.616Z,3.47
2024-02-02T10:12:11.822Z,3.42
2024-02-02T10:14:50.394Z,3.97
2024-02-02T10:17:42.027Z,4.40
2024-02-02T10:20:17.700Z,4.82
2024-02-02T10:23:12.369Z,4.10
2024-02-02T10:26:08.907Z,4.38
2024-02-02T10:28:51.757Z,4.53
2024-02-02T10:31:44.358Z,4.50
2024-02-02T10:34:40.385Z,5.10
2024-02-02T10:37:07.095Z,4.57
2024-02-02T10:39:47.315Z,4.88
2024-02-02T10:42:34.522Z,5.00
2024-02-02T10:45:16.146Z,5.35
2024-02-02T10:47:57.714Z,5.00
2024-02-02T10:50:36.168Z,5.27
2024-02-02T10:53:43.135Z,4.57
2024-02-02T10:56:31.717Z,5.70
2024-02-02T10:59:23.624Z,5.68
2024-02-02T11:02:03.661Z,5.57
2024-02-02T11:04:56.485Z,5.60
2024-02-02T11:07:28.573Z,5.50
2024-02-02T11:10:00.600Z,6.28
2024-02-02T11:12:53.741Z,5.95
2024-02-02T11:15:52.926Z,5.78
2024-02-02T11:18:49.193Z,5.47
2024-02-02T11:21:48.746Z,6.78
2024-02-02T11:24:30.845Z,6.55
2024-02-02T11:27:09.025Z,5.38
2024-02-02T11:30:03.548Z,6.35
2024-02-02T11:32:56.628Z,5.65
2024-02-02T11:35:48.079Z,5.95
2024-02-02T11:38:56.294Z,6.47
2024-02-02T11:41:28.289Z,5.38
2024-02-02T11:43:55.942Z,5.93
2024-02-02T11:46:28.667Z,6.45
2024-02-02T11:49:06.965Z,6.25
2024-02-02T11:51:38.547Z,6.68
2024-02-02T11:54:34.994Z,6.38
2024-02-02T11:57:05.203Z,6.38
2024-02-02T11:59:39.711Z,6.15
2024-02-02T12:02:09.229Z,6.10
2024-02-02T12:04:43.121Z,5.70
2024-02-02T12:07:37.338Z,5.95
2024-02-02T12:10:06.293Z,6.20
2024-02-02T12:12:36.896Z,5.90
2024-02-02T12:15:04.290Z,5.63
2024-02-02T12:17:31.516Z,6.10
2024-02-02T12:19:58.686Z,6.30
2024-02-02T12:22:25.585Z,6.10
2024-02-02T12:24:53.472Z,6.82
2024-02-02T12:27:20.436Z,5.88
2024-02-02T12:29:47.598Z,5.65
2024-02-02T12:32:14.495Z,7.32
2024-02-02T12:34:41.481Z,7.00
2024-02-02T12:37:08.577Z,7.03
2024-02-02T12:39:38.254Z,6.05
2024-02-02T12:42:07.706Z,7.93
2024-02-02T12:44:34.753Z,6.47
2024-02-02T12:47:01.546Z,6.90
2024-02-02T12:49:28.552Z,7.43
2024-02-02T12:51:57.531Z,6.70
2024-02-02T12:54:24.653Z,7.78
2024-02-02T12:56:51.797Z,7.55
2024-02-02T12:59:21.655Z,6.80
2024-02-02T13:01:51.649Z,7.65
2024-02-02T13:04:19.802Z,7.65
2024-02-02T13:06:47.008Z,7.32
2024-02-02T13:09:20.606Z,7.40
2024-02-02T13:11:47.846Z,7.47
2024-02-02T13:14:14.994Z,7.85
2024-02-02T13:16:41.779Z,8.27
2024-02-02T13:19:34.794Z,7.80
2024-02-02T13:22:04.891Z,7.43
2024-02-02T13:24:32.365Z,6.72
2024-02-02T13:27:06.364Z,7.07
2024-02-02T13:29:36.998Z,7.85
2024-02-02T13:32:08.258Z,8.10
2024-02-02T13:34:36.603Z,8.10
2024-02-02T13:37:06.819Z,8.50
2024-02-02T13:39:34.911Z,8.95
2024-02-02T13:42:06.113Z,8.60
2024-02-02T13:44:35.064Z,8.20
2024-02-02T13:47:01.788Z,10.05
2024-02-02T13:49:32.917Z,8.73
2024-02-02T13:52:07.018Z,8.60
2024-02-02T13:54:34.636Z,10.57
2024-02-02T13:57:02.037Z,10.07
2024-02-02T13:59:29.210Z,10.30
2024-02-02T14:02:08.223Z,10.70
2024-02-02T14:04:35.050Z,10.45
2024-02-02T14:07:02.192Z,10.82
2024-02-02T14:09:29.152Z,10.77
2024-02-02T14:12:02.518Z,10.07
2024-02-02T14:14:29.670Z,9.82
2024-02-02T14:17:05.863Z,9.73
2024-02-02T14:19:33.632Z,10.32
2024-02-02T14:22:05.816Z,10.73
2024-02-02T14:24:33.188Z,9.60
2024-02-02T14:27:02.389Z,10.85
2024-02-02T14:29:48.756Z,11.32
2024-02-02T14:32:17.198Z,10.38
2024-02-02T14:34:44.003Z,10.23
2024-02-02T14:37:12.305Z,9.75
2024-02-02T14:39:39.004Z,10.98
2024-02-02T14:42:06.561Z,10.05
2024-02-02T14:44:33.917Z,12.25
2024-02-02T14:47:01.356Z,10.52
2024-02-02T14:49:28.775Z,8.73
2024-02-02T14:51:55.830Z,11.18
2024-02-02T14:54:24.404Z,10.10
2024-02-02T14:56:51.974Z,10.98
2024-02-02T14:59:29.362Z,11.70
2024-02-02T15:01:57.254Z,10.45
2024-02-02T15:04:24.091Z,10.65
2024-02-02T15:06:51.174Z,10.82
2024-02-02T15:09:18.179Z,11.55
2024-02-02T15:11:45.972Z,11.30
2024-02-02T15:14:13.861Z,11.82
2024-02-02T15:16:40.702Z,11.48
2024-02-02T15:19:07.528Z,10.75
2024-02-02T15:21:34.731Z,13.20
2024-02-02T15:24:01.989Z,11.80
2024-02-02T15:26:29.127Z,12.60
2024-02-02T15:28:55.807Z,12.43
2024-02-02T15:31:23.522Z,12.45
2024-02-02T15:33:50.531Z,14.00
2024-02-02T15:36:17.440Z,12.43
2024-02-02T15:39:00.016Z,12.55
2024-02-02T15:41:30.795Z,12.38
2024-02-02T15:43:57.541Z,11.75
2024-02-02T15:46:24.873Z,11.95
2024-02-02T15:48:52.081Z,12.35
2024-02-02T15:51:19.525Z,12.68
2024-02-02T15:53:47.033Z,12.07
2024-02-02T15:56:18.103Z,12.48
2024-02-02T15:58:44.921Z,11.57
2024-02-02T16:01:13.030Z,11.75
2024-02-02T16:03:43.456Z,10.88
2024-02-02T16:06:11.519Z,10.93
2024-02-02T16:08:38.989Z,11.95
2024-02-02T16:11:05.905Z,11.80
2024-02-02T16:13:32.780Z,11.73
2024-02-02T16:16:00.478Z,11.80
2024-02-02T16:18:27.564Z,11.75
2024-02-02T16:20:54.577Z,10.68
2024-02-02T16:23:21.347Z,10.48
2024-02-02T16:25:48.039Z,11.80
2024-02-02T16:28:14.786Z,11.68
2024-02-02T16:30:43.230Z,11.10
2024-02-02T16:33:10.632Z,11.05
2024-02-02T16:35:37.537Z,10.90
2024-02-02T16:38:04.451Z,10.40
2024-02-02T16:40:31.246Z,11.07
2024-02-02T16:42:58.010Z,13.30
2024-02-02T16:45:24.831Z,11.40
2024-02-02T16:47:53.999Z,10.75
2024-02-02T16:50:20.730Z,11.20
2024-02-02T16:52:47.528Z,11.45
2024-02-02T16:55:14.562Z,11.23
2024-02-02T16:57:41.292Z,10.50
2024-02-02T17:00:09.559Z,10.45
2024-02-02T17:02:36.746Z,9.40
2024-02-02T17:05:03.754Z,11.00
2024-02-02T17:07:30.599Z,11.63
2024-02-02T17:09:57.510Z,11.35
2024-02-02T17:12:26.059Z,9.43
2024-02-02T17:14:52.936Z,8.52
2024-02-02T17:17:19.693Z,9.35
2024-02-02T17:19:46.649Z,9.50
2024-02-02T17:22:13.393Z,9.68
2024-02-02T17:24:41.198Z,9.50
2024-02-02T17:27:08.027Z,10.68
2024-02-02T17:29:34.808Z,10.57
2024-02-02T17:32:01.476Z,9.95
2024-02-02T17:34:28.244Z,9.70
2024-02-02T17:36:55.074Z,9.60
2024-02-02T17:39:21.869Z,9.45
2024-02-02T17:41:48.583Z,9.52
2024-02-02T17:44:20.699Z,9.40
2024-02-02T17:46:51.219Z,9.05
2024-02-02T17:49:18.434Z,10.10
2024-02-02T17:51:45.280Z,9.93
2024-02-02T17:54:12.097Z,10.38
2024-02-02T17:56:38.776Z,8.80
2024-02-02T17:59:05.781Z,9.85
2024-02-02T18:01:34.633Z,9.63
2024-02-02T18:04:01.920Z,9.68
2024-02-02T18:06:28.831Z,9.30
2024-02-02T18:08:55.622Z,10.38
2024-02-02T18:11:22.280Z,10.48
2024-02-02T18:13:48.964Z,10.68
2024-02-02T18:16:15.870Z,9.90
2024-02-02T18:18:43.071Z,9.70
2024-02-02T18:21:10.739Z,11.00
2024-02-02T18:23:37.460Z,10.05
2024-02-02T18:26:05.055Z,9.88
2024-02-02T18:28:32.369Z,10.05
2024-02-02T18:30:59.126Z,10.65
2024-02-02T18:33:26.173Z,10.20
2024-02-02T18:35:52.909Z,10.65
2024-02-02T18:38:19.582Z,10.10
2024-02-02T18:40:50.484Z,10.90
2024-02-02T18:43:18.249Z,11.18
2024-02-02T18:45:45.051Z,10.48
2024-02-02T18:48:12.053Z,10.70
2024-02-02T18:50:38.891Z,11.20
2024-02-02T18:53:05.563Z,11.40
2024-02-02T18:55:32.287Z,10.80
2024-02-02T18:57:58.961Z,11.07
2024-02-02T19:00:25.803Z,11.07
2024-02-02T19:02:52.761Z,10.93
2024-02-02T19:05:19.900Z,11.60
2024-02-02T19:07:46.588Z,13.05
2024-02-02T19:10:16.541Z,11.70
2024-02-02T19:12:43.523Z,11.40
2024-02-02T19:15:10.238Z,11.95
2024-02-02T19:17:37.054Z,10.90
2024-02-02T19:20:04.228Z,10.27
2024-02-02T19:22:30.899Z,11.15
2024-02-02T19:24:59.405Z,10.93
2024-02-02T19:27:26.288Z,11.60
2024-02-02T19:29:52.986Z,11.85
2024-02-02T19:32:19.701Z,11.23
2024-02-02T19:34:46.425Z,11.35
2024-02-02T19:37:13.166Z,11.63
2024-02-02T19:39:39.912Z,10.95
2024-02-02T19:42:06.863Z,12.10
2024-02-02T19:44:33.599Z,12.05
2024-02-02T19:47:00.250Z,11.75
2024-02-02T19:49:27.124Z,11.18
2024-02-02T19:51:53.992Z,11.88
2024-02-02T19:54:20.812Z,11.20
2024-02-02T19:56:47.624Z,11.15
2024-02-02T19:59:16.013Z,11.13
2024-02-02T20:01:46.929Z,13.23
2024-02-02T20:04:13.898Z,12.85
2024-02-02T20:06:41.331Z,11.88
2024-02-02T20:09:09.330Z,12.40
2024-02-02T20:11:36.162Z,12.88
2024-02-02T20:14:02.837Z,12.73
2024-02-02T20:16:29.595Z,13.65
2024-02-02T20:18:56.395Z,12.75
2024-02-02T20:21:26.098Z,13.20
2024-02-02T20:23:55.424Z,12.55
2024-02-02T20:26:23.154Z,12.65
2024-02-02T20:28:51.164Z,13.23
2024-02-02T20:31:18.275Z,12.80
2024-02-02T20:33:45.395Z,12.95
2024-02-02T20:36:12.369Z,12.73
2024-02-02T20:38:41.738Z,13.07
2024-02-02T20:41:09.370Z,13.80
2024-02-02T20:43:36.105Z,13.40
2024-02-02T20:46:02.824Z,13.90
2024-02-02T20:48:29.511Z,12.75
2024-02-02T20:50:56.323Z,13.80
2024-02-02T20:53:23.225Z,14.20
2024-02-02T20:55:50.250Z,13.85
2024-02-02T20:58:17.100Z,13.57
2024-02-02T21:00:43.894Z,12.95
2024-02-02T21:03:11.130Z,13.98
2024-02-02T21:05:38.232Z,13.32
2024-02-02T21:08:05.311Z,14.15
2024-02-02T21:10:32.460Z,13.73
2024-02-02T21:12:59.319Z,13.60
2024-02-02T21:15:29.954Z,14.52
2024-02-02T21:17:58.300Z,14.40
2024-02-02T21:20:31.916Z,14.60
2024-02-02T21:22:58.728Z,14.57
2024-02-02T21:25:25.497Z,13.57
2024-02-02T21:27:52.301Z,15.30
2024-02-02T21:30:19.303Z,15.02
2024-02-02T21:32:46.071Z,14.13
2024-02-02T21:35:12.891Z,13.90
2024-02-02T21:37:39.590Z,14.45
2024-02-02T21:40:07.187Z,14.93
2024-02-02T21:42:33.966Z,15.77
2024-02-02T21:45:00.721Z,15.30
2024-02-02T21:47:27.426Z,15.50
2024-02-02T21:49:54.490Z,14.88
2024-02-02T21:52:21.361Z,16.05
2024-02-02T21:54:48.270Z,16.10
2024-02-02T21:57:15.164Z,14.88
2024-02-02T21:59:41.947Z,14.80
2024-02-02T22:02:08.696Z,16.02
2024-02-02T22:04:35.472Z,15.20
2024-02-02T22:07:04.274Z,16.75
2024-02-02T22:09:31.467Z,16.05
2024-02-02T22:11:58.344Z,15.20
2024-02-02T22:14:25.437Z,14.50
2024-02-02T22:16:52.214Z,15.50
2024-02-02T22:19:18.986Z,16.45
2024-02-02T22:21:47.016Z,15.77
2024-02-02T22:24:13.766Z,15.60
2024-02-02T22:26:40.479Z,14.50
2024-02-02T22:29:07.289Z,14.65
2024-02-02T22:31:35.158Z,15.77
2024-02-02T22:34:02.809Z,16.45
2024-02-02T22:36:30.201Z,15.77
2024-02-02T22:38:57.010Z,16.05
2024-02-02T22:41:32.846Z,14.75
2024-02-02T22:44:02.047Z,15.95
2024-02-02T22:46:32.939Z,13.73
2024-02-02T22:49:00.617Z,14.18
2024-02-02T22:51:27.676Z,15.18
2024-02-02T22:53:54.366Z,13.75
2024-02-02T22:56:21.201Z,14.10
2024-02-02T22:58:47.893Z,13.85
2024-02-02T23:01:14.951Z,13.88
2024-02-02T23:03:41.877Z,14.00
2024-02-02T23:06:08.768Z,13.52
2024-02-02T23:08:35.584Z,13.52
2024-02-02T23:11:02.608Z,13.43
2024-02-02T23:13:29.318Z,13.23
2024-02-02T23:15:58.930Z,13.40
2024-02-02T23:18:27.397Z,12.18
2024-02-02T23:20:58.951Z,13.75
2024-02-02T23:23:25.863Z,12.93
2024-02-02T23:25:52.645Z,12.73
2024-02-02T23:28:19.324Z,11.75
2024-02-02T23:30:47.034Z,12.05
2024-02-02T23:33:14.720Z,13.07
2024-02-02T23:35:42.163Z,12.07
2024-02-02T23:38:09.245Z,12.43
2024-02-02T23:40:36.019Z,12.73
2024-02-02T23:43:02.997Z,11.18
2024-02-02T23:45:30.569Z,12.75
2024-02-02T23:47:57.534Z,11.52
2024-02-02T23:50:24.340Z,11.73
2024-02-02T23:52:51.015Z,12.70
2024-02-02T23:55:18.019Z,12.15
2024-02-02T23:57:44.863Z,12.35
